sensor_id;sensor_type;location;lat;lon;timestamp;temperature;humidity
40676;DHT22;26359;48.750;9.314;2023-03-01T00:01:07;0.70;99.90
40676;DHT22;26359;48.750;9.314;2023-03-01T00:03:33;0.70;99.90
40676;DHT22;26359;48.750;9.314;2023-03-01T00:05:59;0.80;99.90
40676;DHT22;26359;48.750;9.314;2023-03-01T00:08:26;0.80;99.90
40676;DHT22;26359;48.750;9.314;2023-03-01T00:11:18;0.80;99.90
40676;DHT22;26359;48.750;9.314;2023-03-01T00:13:46;0.70;99.90
40676;DHT22;26359;48.750;9.314;2023-03-01T00:16:28;0.70;99.90
40676;DHT22;26359;48.750;9.314;2023-03-01T00:18:55;0.70;99.90
40676;DHT22;26359;48.750;9.314;2023-03-01T00:21:21;0.70;99.90
40676;DHT22;26359;48.750;9.314;2023-03-01T00:23:50;0.60;99.90
40676;DHT22;26359;48.750;9.314;2023-03-01T00:26:16;0.60;99.90
40676;DHT22;26359;48.750;9.314;2023-03-01T00:28:43;0.60;99.90
40676;DHT22;26359;48.750;9.314;2023-03-01T00:31:12;0.60;99.90
40676;DHT22;26359;48.750;9.314;2023-03-01T00:33:38;0.60;99.90
40676;DHT22;26359;48.750;9.314;2023-03-01T00:36:04;0.60;99.90
40676;DHT22;26359;48.750;9.314;2023-03-01T00:38:30;0.70;99.90
40676;DHT22;26359;48.750;9.314;2023-03-01T00:41:04;0.60;99.90
40676;DHT22;26359;48.750;9.314;2023-03-01T00:43:30;0.50;99.90
40676;DHT22;26359;48.750;9.314;2023-03-01T00:46:00;0.50;99.90
40676;DHT22;26359;48.750;9.314;2023-03-01T00:48:25;0.50;99.90
40676;DHT22;26359;48.750;9.314;2023-03-01T00:50:51;0.50;99.90
40676;DHT22;26359;48.750;9.314;2023-03-01T00:53:16;0.50;99.90
40676;DHT22;26359;48.750;9.314;2023-03-01T00:55:42;0.40;99.90
40676;DHT22;26359;48.750;9.314;2023-03-01T00:58:07;0.50;99.90
40676;DHT22;26359;48.750;9.314;2023-03-01T01:00:33;0.50;99.90
40676;DHT22;26359;48.750;9.314;2023-03-01T01:02:59;0.50;99.90
40676;DHT22;26359;48.750;9.314;2023-03-01T01:05:24;0.50;99.90
40676;DHT22;26359;48.750;9.314;2023-03-01T01:07:49;0.50;99.90
40676;DHT22;26359;48.750;9.314;2023-03-01T01:10:15;0.50;99.90
40676;DHT22;26359;48.750;9.314;2023-03-01T01:12:45;0.50;99.90
40676;DHT22;26359;48.750;9.314;2023-03-01T01:15:11;0.50;99.90
40676;DHT22;26359;48.750;9.314;2023-03-01T01:17:39;0.40;99.90
40676;DHT22;26359;48.750;9.314;2023-03-01T01:20:05;0.40;99.90
40676;DHT22;26359;48.750;9.314;2023-03-01T01:22:31;0.30;99.90
40676;DHT22;26359;48.750;9.314;2023-03-01T01:24:56;0.30;99.90
40676;DHT22;26359;48.750;9.314;2023-03-01T01:27:22;0.30;99.90
40676;DHT22;26359;48.750;9.314;2023-03-01T01:29:47;0.30;99.90
40676;DHT22;26359;48.750;9.314;2023-03-01T01:32:13;0.30;99.90
40676;DHT22;26359;48.750;9.314;2023-03-01T01:34:39;0.40;99.90
40676;DHT22;26359;48.750;9.314;2023-03-01T01:37:05;0.30;99.90
40676;DHT22;26359;48.750;9.314;2023-03-01T01:39:34;0.30;99.90
40676;DHT22;26359;48.750;9.314;2023-03-01T01:42:00;0.40;99.90
40676;DHT22;26359;48.750;9.314;2023-03-01T01:44:28;0.30;99.90
40676;DHT22;26359;48.750;9.314;2023-03-01T01:46:57;0.40;99.90
40676;DHT22;26359;48.750;9.314;2023-03-01T01:52:23;0.40;99.90
40676;DHT22;26359;48.750;9.314;2023-03-01T01:54:55;0.30;99.90
40676;DHT22;26359;48.750;9.314;2023-03-01T01:57:27;0.40;99.90
40676;DHT22;26359;48.750;9.314;2023-03-01T01:59:57;0.40;99.90
40676;DHT22;26359;48.750;9.314;2023-03-01T02:02:24;0.50;99.90
40676;DHT22;26359;48.750;9.314;2023-03-01T02:04:53;0.40;99.90
40676;DHT22;26359;48.750;9.314;2023-03-01T02:07:22;0.40;99.90
40676;DHT22;26359;48.750;9.314;2023-03-01T02:09:50;0.50;99.90
40676;DHT22;26359;48.750;9.314;2023-03-01T02:12:19;0.50;99.90
40676;DHT22;26359;48.750;9.314;2023-03-01T02:14:45;0.50;99.90
40676;DHT22;26359;48.750;9.314;2023-03-01T02:17:12;0.50;99.90
40676;DHT22;26359;48.750;9.314;2023-03-01T02:20:04;0.60;99.90
40676;DHT22;26359;48.750;9.314;2023-03-01T02:22:36;0.60;99.90
40676;DHT22;26359;48.750;9.314;2023-03-01T02:30:22;0.60;99.90
40676;DHT22;26359;48.750;9.314;2023-03-01T02:32:51;0.60;99.90
40676;DHT22;26359;48.750;9.314;2023-03-01T02:35:18;0.60;99.90
40676;DHT22;26359;48.750;9.314;2023-03-01T02:37:44;0.60;99.90
40676;DHT22;26359;48.750;9.314;2023-03-01T02:40:17;0.60;99.90
40676;DHT22;26359;48.750;9.314;2023-03-01T02:42:57;0.70;99.90
40676;DHT22;26359;48.750;9.314;2023-03-01T02:45:23;0.70;99.90
40676;DHT22;26359;48.750;9.314;2023-03-01T02:47:49;0.70;99.90
40676;DHT22;26359;48.750;9.314;2023-03-01T02:53:01;0.70;99.90
40676;DHT22;26359;48.750;9.314;2023-03-01T02:55:30;0.70;99.90
40676;DHT22;26359;48.750;9.314;2023-03-01T02:57:56;0.70;99.90
40676;DHT22;26359;48.750;9.314;2023-03-01T03:00:30;0.70;99.90
40676;DHT22;26359;48.750;9.314;2023-03-01T03:02:58;0.70;99.90
40676;DHT22;26359;48.750;9.314;2023-03-01T03:05:26;0.60;99.90
40676;DHT22;26359;48.750;9.314;2023-03-01T03:07:52;0.70;99.90
40676;DHT22;26359;48.750;9.314;2023-03-01T03:10:20;0.70;99.90
40676;DHT22;26359;48.750;9.314;2023-03-01T03:12:54;0.70;99.90
40676;DHT22;26359;48.750;9.314;2023-03-01T03:15:21;0.70;99.90
40676;DHT22;26359;48.750;9.314;2023-03-01T03:17:47;0.80;99.90
40676;DHT22;26359;48.750;9.314;2023-03-01T03:20:16;0.80;99.90
40676;DHT22;26359;48.750;9.314;2023-03-01T03:22:45;0.80;99.90
40676;DHT22;26359;48.750;9.314;2023-03-01T03:25:11;0.80;99.90
40676;DHT22;26359;48.750;9.314;2023-03-01T03:27:41;0.80;99.90
40676;DHT22;26359;48.750;9.314;2023-03-01T03:30:08;0.80;99.90
40676;DHT22;26359;48.750;9.314;2023-03-01T03:32:38;0.90;99.90
40676;DHT22;26359;48.750;9.314;2023-03-01T03:35:04;0.90;99.90
40676;DHT22;26359;48.750;9.314;2023-03-01T03:37:41;0.90;99.90
40676;DHT22;26359;48.750;9.314;2023-03-01T03:40:28;0.90;99.90
40676;DHT22;26359;48.750;9.314;2023-03-01T03:42:54;0.90;99.90
40676;DHT22;26359;48.750;9.314;2023-03-01T03:45:20;0.90;99.90
40676;DHT22;26359;48.750;9.314;2023-03-01T03:47:45;0.90;99.90
40676;DHT22;26359;48.750;9.314;2023-03-01T03:50:12;0.90;99.90
40676;DHT22;26359;48.750;9.314;2023-03-01T03:52:38;0.90;99.90
40676;DHT22;26359;48.750;9.314;2023-03-01T03:55:05;0.90;99.90
40676;DHT22;26359;48.750;9.314;2023-03-01T03:57:35;0.90;99.90
40676;DHT22;26359;48.750;9.314;2023-03-01T04:00:00;0.90;99.90
40676;DHT22;26359;48.750;9.314;2023-03-01T04:02:26;0.90;99.90
40676;DHT22;26359;48.750;9.314;2023-03-01T04:04:51;0.90;99.90
40676;DHT22;26359;48.750;9.314;2023-03-01T04:07:17;0.90;99.90
40676;DHT22;26359;48.750;9.314;2023-03-01T04:09:43;1.00;99.90
40676;DHT22;26359;48.750;9.314;2023-03-01T04:12:09;0.90;99.90
40676;DHT22;26359;48.750;9.314;2023-03-01T04:14:34;0.90;99.90
40676;DHT22;26359;48.750;9.314;2023-03-01T04:17:00;0.90;99.90
40676;DHT22;26359;48.750;9.314;2023-03-01T04:19:26;0.90;99.90
40676;DHT22;26359;48.750;9.314;2023-03-01T04:21:52;0.90;99.90
40676;DHT22;26359;48.750;9.314;2023-03-01T04:24:18;0.90;99.90
40676;DHT22;26359;48.750;9.314;2023-03-01T04:26:43;0.90;99.90
40676;DHT22;26359;48.750;9.314;2023-03-01T04:29:09;0.90;99.90
40676;DHT22;26359;48.750;9.314;2023-03-01T04:31:34;0.90;99.90
40676;DHT22;26359;48.750;9.314;2023-03-01T04:34:00;0.90;99.90
40676;DHT22;26359;48.750;9.314;2023-03-01T04:36:27;0.90;99.90
40676;DHT22;26359;48.750;9.314;2023-03-01T04:38:54;0.90;99.90
40676;DHT22;26359;48.750;9.314;2023-03-01T04:41:21;0.90;99.90
40676;DHT22;26359;48.750;9.314;2023-03-01T04:43:47;0.90;99.90
40676;DHT22;26359;48.750;9.314;2023-03-01T04:46:17;0.90;99.90
40676;DHT22;26359;48.750;9.314;2023-03-01T04:48:44;1.00;99.90
40676;DHT22;26359;48.750;9.314;2023-03-01T04:51:10;1.00;99.90
40676;DHT22;26359;48.750;9.314;2023-03-01T04:53:38;1.00;99.90
40676;DHT22;26359;48.750;9.314;2023-03-01T04:56:04;1.00;99.90
40676;DHT22;26359;48.750;9.314;2023-03-01T04:58:30;1.00;99.90
40676;DHT22;26359;48.750;9.314;2023-03-01T05:00:56;1.00;99.90
40676;DHT22;26359;48.750;9.314;2023-03-01T05:03:22;0.90;99.90
40676;DHT22;26359;48.750;9.314;2023-03-01T05:05:50;1.00;99.90
40676;DHT22;26359;48.750;9.314;2023-03-01T05:08:16;1.00;99.90
40676;DHT22;26359;48.750;9.314;2023-03-01T05:10:53;1.00;99.90
40676;DHT22;26359;48.750;9.314;2023-03-01T05:13:20;0.90;99.90
40676;DHT22;26359;48.750;9.314;2023-03-01T05:15:48;0.90;99.90
40676;DHT22;26359;48.750;9.314;2023-03-01T05:18:14;0.90;99.90
40676;DHT22;26359;48.750;9.314;2023-03-01T05:20:40;1.00;99.90
40676;DHT22;26359;48.750;9.314;2023-03-01T05:23:05;1.00;99.90
40676;DHT22;26359;48.750;9.314;2023-03-01T05:25:32;0.90;99.90
40676;DHT22;26359;48.750;9.314;2023-03-01T05:28:02;0.90;99.90
40676;DHT22;26359;48.750;9.314;2023-03-01T05:30:33;0.90;99.90
40676;DHT22;26359;48.750;9.314;2023-03-01T05:32:59;0.90;99.90
40676;DHT22;26359;48.750;9.314;2023-03-01T05:35:25;1.00;99.90
40676;DHT22;26359;48.750;9.314;2023-03-01T05:37:51;1.00;99.90
40676;DHT22;26359;48.750;9.314;2023-03-01T05:40:22;0.90;99.90
40676;DHT22;26359;48.750;9.314;2023-03-01T05:42:52;0.90;99.90
40676;DHT22;26359;48.750;9.314;2023-03-01T05:45:19;0.90;99.90
40676;DHT22;26359;48.750;9.314;2023-03-01T05:47:46;0.90;99.90
40676;DHT22;26359;48.750;9.314;2023-03-01T05:50:14;0.90;99.90
40676;DHT22;26359;48.750;9.314;2023-03-01T05:52:43;0.90;99.90
40676;DHT22;26359;48.750;9.314;2023-03-01T05:55:09;1.00;99.90
40676;DHT22;26359;48.750;9.314;2023-03-01T05:57:35;1.00;99.90
40676;DHT22;26359;48.750;9.314;2023-03-01T06:00:00;1.00;99.90
40676;DHT22;26359;48.750;9.314;2023-03-01T06:02:26;1.00;99.90
40676;DHT22;26359;48.750;9.314;2023-03-01T06:04:52;0.90;99.90
40676;DHT22;26359;48.750;9.314;2023-03-01T06:07:18;0.90;99.90
40676;DHT22;26359;48.750;9.314;2023-03-01T06:09:43;0.80;99.90
40676;DHT22;26359;48.750;9.314;2023-03-01T06:12:09;0.90;99.90
40676;DHT22;26359;48.750;9.314;2023-03-01T06:14:35;0.80;99.90
40676;DHT22;26359;48.750;9.314;2023-03-01T06:17:00;0.90;99.90
40676;DHT22;26359;48.750;9.314;2023-03-01T06:19:26;0.90;99.90
40676;DHT22;26359;48.750;9.314;2023-03-01T06:21:51;0.90;99.90
40676;DHT22;26359;48.750;9.314;2023-03-01T06:24:17;0.90;99.90
40676;DHT22;26359;48.750;9.314;2023-03-01T06:26:42;0.90;99.90
40676;DHT22;26359;48.750;9.314;2023-03-01T06:29:08;1.00;99.90
40676;DHT22;26359;48.750;9.314;2023-03-01T06:31:34;1.00;99.90
40676;DHT22;26359;48.750;9.314;2023-03-01T06:33:59;1.10;99.90
40676;DHT22;26359;48.750;9.314;2023-03-01T06:36:25;1.10;99.90
40676;DHT22;26359;48.750;9.314;2023-03-01T06:38:50;1.10;99.90
40676;DHT22;26359;48.750;9.314;2023-03-01T06:41:16;1.10;99.90
40676;DHT22;26359;48.750;9.314;2023-03-01T06:43:41;1.10;99.90
40676;DHT22;26359;48.750;9.314;2023-03-01T06:46:07;1.10;99.90
40676;DHT22;26359;48.750;9.314;2023-03-01T06:48:33;1.00;99.90
40676;DHT22;26359;48.750;9.314;2023-03-01T06:51:00;1.00;99.90
40676;DHT22;26359;48.750;9.314;2023-03-01T06:53:29;1.00;99.90
40676;DHT22;26359;48.750;9.314;2023-03-01T06:55:58;1.00;99.90
40676;DHT22;26359;48.750;9.314;2023-03-01T06:58:25;1.00;99.90
40676;DHT22;26359;48.750;9.314;2023-03-01T07:00:51;1.00;99.90
40676;DHT22;26359;48.750;9.314;2023-03-01T07:03:17;1.00;99.90
40676;DHT22;26359;48.750;9.314;2023-03-01T07:05:42;1.00;99.90
40676;DHT22;26359;48.750;9.314;2023-03-01T07:08:09;1.00;99.90
40676;DHT22;26359;48.750;9.314;2023-03-01T07:10:35;1.00;99.90
40676;DHT22;26359;48.750;9.314;2023-03-01T07:13:00;1.00;99.90
40676;DHT22;26359;48.750;9.314;2023-03-01T07:15:27;0.90;99.90
40676;DHT22;26359;48.750;9.314;2023-03-01T07:17:53;0.90;99.90
40676;DHT22;26359;48.750;9.314;2023-03-01T07:20:19;0.90;99.90
40676;DHT22;26359;48.750;9.314;2023-03-01T07:22:54;1.00;99.90
40676;DHT22;26359;48.750;9.314;2023-03-01T07:25:20;1.00;99.90
40676;DHT22;26359;48.750;9.314;2023-03-01T07:27:52;1.00;99.90
40676;DHT22;26359;48.750;9.314;2023-03-01T07:30:19;1.10;99.90
40676;DHT22;26359;48.750;9.314;2023-03-01T07:32:44;1.30;99.90
40676;DHT22;26359;48.750;9.314;2023-03-01T07:35:11;1.40;99.90
40676;DHT22;26359;48.750;9.314;2023-03-01T07:37:36;1.50;99.90
40676;DHT22;26359;48.750;9.314;2023-03-01T07:40:02;1.50;99.90
40676;DHT22;26359;48.750;9.314;2023-03-01T07:42:28;1.60;99.90
40676;DHT22;26359;48.750;9.314;2023-03-01T07:44:53;1.50;99.90
40676;DHT22;26359;48.750;9.314;2023-03-01T07:47:19;1.50;99.90
40676;DHT22;26359;48.750;9.314;2023-03-01T07:49:44;1.40;99.90
40676;DHT22;26359;48.750;9.314;2023-03-01T07:52:11;1.40;99.90
40676;DHT22;26359;48.750;9.314;2023-03-01T07:54:37;1.40;99.90
40676;DHT22;26359;48.750;9.314;2023-03-01T07:57:03;1.30;99.90
40676;DHT22;26359;48.750;9.314;2023-03-01T07:59:29;1.30;99.90
40676;DHT22;26359;48.750;9.314;2023-03-01T08:01:58;1.30;99.90
40676;DHT22;26359;48.750;9.314;2023-03-01T08:04:23;1.40;99.90
40676;DHT22;26359;48.750;9.314;2023-03-01T08:06:53;1.40;99.90
40676;DHT22;26359;48.750;9.314;2023-03-01T08:09:19;1.40;99.90
40676;DHT22;26359;48.750;9.314;2023-03-01T08:11:44;1.50;99.90
40676;DHT22;26359;48.750;9.314;2023-03-01T08:14:10;1.50;99.90
40676;DHT22;26359;48.750;9.314;2023-03-01T08:16:38;1.60;99.90
40676;DHT22;26359;48.750;9.314;2023-03-01T08:19:05;1.60;99.90
40676;DHT22;26359;48.750;9.314;2023-03-01T08:21:32;1.70;99.90
40676;DHT22;26359;48.750;9.314;2023-03-01T08:24:00;1.70;99.90
40676;DHT22;26359;48.750;9.314;2023-03-01T08:26:26;1.80;99.90
40676;DHT22;26359;48.750;9.314;2023-03-01T08:28:51;1.80;99.90
40676;DHT22;26359;48.750;9.314;2023-03-01T08:31:20;1.80;99.90
40676;DHT22;26359;48.750;9.314;2023-03-01T08:33:47;1.90;99.90
40676;DHT22;26359;48.750;9.314;2023-03-01T08:36:24;2.00;99.90
40676;DHT22;26359;48.750;9.314;2023-03-01T08:38:50;2.00;99.90
40676;DHT22;26359;48.750;9.314;2023-03-01T08:41:16;2.10;99.90
40676;DHT22;26359;48.750;9.314;2023-03-01T08:43:41;2.20;99.90
40676;DHT22;26359;48.750;9.314;2023-03-01T08:46:07;2.30;99.90
40676;DHT22;26359;48.750;9.314;2023-03-01T08:48:32;2.40;99.90
40676;DHT22;26359;48.750;9.314;2023-03-01T08:51:10;2.40;99.90
40676;DHT22;26359;48.750;9.314;2023-03-01T08:53:36;2.50;99.90
40676;DHT22;26359;48.750;9.314;2023-03-01T08:56:02;2.60;99.90
40676;DHT22;26359;48.750;9.314;2023-03-01T08:58:28;2.70;99.90
40676;DHT22;26359;48.750;9.314;2023-03-01T09:00:54;2.70;99.90
40676;DHT22;26359;48.750;9.314;2023-03-01T09:03:22;2.80;99.90
40676;DHT22;26359;48.750;9.314;2023-03-01T09:05:47;2.80;99.90
40676;DHT22;26359;48.750;9.314;2023-03-01T09:08:14;2.90;99.90
40676;DHT22;26359;48.750;9.314;2023-03-01T09:10:40;3.00;99.90
40676;DHT22;26359;48.750;9.314;2023-03-01T09:13:05;3.20;99.90
40676;DHT22;26359;48.750;9.314;2023-03-01T09:15:31;3.30;99.90
40676;DHT22;26359;48.750;9.314;2023-03-01T09:17:56;3.30;99.90
40676;DHT22;26359;48.750;9.314;2023-03-01T09:20:22;3.40;99.90
40676;DHT22;26359;48.750;9.314;2023-03-01T09:22:47;3.40;99.90
40676;DHT22;26359;48.750;9.314;2023-03-01T09:25:13;3.40;99.90
40676;DHT22;26359;48.750;9.314;2023-03-01T09:27:38;3.40;99.90
40676;DHT22;26359;48.750;9.314;2023-03-01T09:30:04;3.60;99.90
40676;DHT22;26359;48.750;9.314;2023-03-01T09:32:31;3.70;99.90
40676;DHT22;26359;48.750;9.314;2023-03-01T09:34:56;3.90;99.90
40676;DHT22;26359;48.750;9.314;2023-03-01T09:37:32;3.90;99.90
40676;DHT22;26359;48.750;9.314;2023-03-01T09:39:58;4.00;99.90
40676;DHT22;26359;48.750;9.314;2023-03-01T09:42:24;4.10;99.90
40676;DHT22;26359;48.750;9.314;2023-03-01T09:44:57;4.10;99.90
40676;DHT22;26359;48.750;9.314;2023-03-01T09:47:29;4.10;99.90
40676;DHT22;26359;48.750;9.314;2023-03-01T09:50:11;4.20;99.90
40676;DHT22;26359;48.750;9.314;2023-03-01T09:52:41;4.30;99.90
40676;DHT22;26359;48.750;9.314;2023-03-01T09:55:33;4.70;99.90
40676;DHT22;26359;48.750;9.314;2023-03-01T10:00:49;5.50;99.90
40676;DHT22;26359;48.750;9.314;2023-03-01T10:06:11;6.10;99.90
40676;DHT22;26359;48.750;9.314;2023-03-01T10:08:42;6.20;99.90
40676;DHT22;26359;48.750;9.314;2023-03-01T10:13:45;6.30;99.90
40676;DHT22;26359;48.750;9.314;2023-03-01T10:16:18;6.70;99.90
40676;DHT22;26359;48.750;9.314;2023-03-01T10:18:51;7.20;99.90
40676;DHT22;26359;48.750;9.314;2023-03-01T10:21:19;7.30;99.90
40676;DHT22;26359;48.750;9.314;2023-03-01T10:23:46;7.40;99.90
40676;DHT22;26359;48.750;9.314;2023-03-01T10:28:58;7.60;99.90
40676;DHT22;26359;48.750;9.314;2023-03-01T10:31:36;7.90;99.90
40676;DHT22;26359;48.750;9.314;2023-03-01T10:34:12;8.20;99.90
40676;DHT22;26359;48.750;9.314;2023-03-01T10:36:39;8.50;99.90
40676;DHT22;26359;48.750;9.314;2023-03-01T10:39:19;8.70;99.90
40676;DHT22;26359;48.750;9.314;2023-03-01T10:41:55;8.80;99.90
40676;DHT22;26359;48.750;9.314;2023-03-01T10:49:38;8.60;99.90
40676;DHT22;26359;48.750;9.314;2023-03-01T10:52:21;8.50;99.90
40676;DHT22;26359;48.750;9.314;2023-03-01T10:55:01;8.90;99.90
40676;DHT22;26359;48.750;9.314;2023-03-01T10:57:38;9.30;99.90
40676;DHT22;26359;48.750;9.314;2023-03-01T11:00:24;9.50;99.90
40676;DHT22;26359;48.750;9.314;2023-03-01T11:03:02;9.60;99.90
40676;DHT22;26359;48.750;9.314;2023-03-01T11:05:28;9.60;99.90
40676;DHT22;26359;48.750;9.314;2023-03-01T11:07:58;9.60;99.90
40676;DHT22;26359;48.750;9.314;2023-03-01T11:10:30;9.40;99.90
40676;DHT22;26359;48.750;9.314;2023-03-01T11:13:16;9.20;99.90
40676;DHT22;26359;48.750;9.314;2023-03-01T11:15:43;9.60;99.90
40676;DHT22;26359;48.750;9.314;2023-03-01T11:18:20;10.00;99.90
40676;DHT22;26359;48.750;9.314;2023-03-01T11:20:46;10.30;99.90
40676;DHT22;26359;48.750;9.314;2023-03-01T11:23:14;10.40;99.90
40676;DHT22;26359;48.750;9.314;2023-03-01T11:25:43;10.70;99.90
40676;DHT22;26359;48.750;9.314;2023-03-01T11:28:20;10.20;99.90
40676;DHT22;26359;48.750;9.314;2023-03-01T11:31:06;10.30;99.90
40676;DHT22;26359;48.750;9.314;2023-03-01T11:33:40;10.00;99.90
40676;DHT22;26359;48.750;9.314;2023-03-01T11:42:02;9.90;99.90
40676;DHT22;26359;48.750;9.314;2023-03-01T11:44:33;10.00;99.90
40676;DHT22;26359;48.750;9.314;2023-03-01T11:50:02;10.50;99.90
40676;DHT22;26359;48.750;9.314;2023-03-01T11:52:48;10.60;99.90
40676;DHT22;26359;48.750;9.314;2023-03-01T11:58:27;10.90;99.90
40676;DHT22;26359;48.750;9.314;2023-03-01T12:12:45;11.20;99.90
40676;DHT22;26359;48.750;9.314;2023-03-01T12:15:32;11.30;99.90
40676;DHT22;26359;48.750;9.314;2023-03-01T12:31:56;11.60;99.30
40676;DHT22;26359;48.750;9.314;2023-03-01T12:40:31;11.90;99.90
40676;DHT22;26359;48.750;9.314;2023-03-01T12:43:43;12.20;99.70
40676;DHT22;26359;48.750;9.314;2023-03-01T12:51:32;12.10;99.10
40676;DHT22;26359;48.750;9.314;2023-03-01T12:54:05;12.20;98.80
40676;DHT22;26359;48.750;9.314;2023-03-01T12:56:32;11.90;98.90
40676;DHT22;26359;48.750;9.314;2023-03-01T12:59:17;11.40;99.00
40676;DHT22;26359;48.750;9.314;2023-03-01T13:07:10;11.60;99.30
40676;DHT22;26359;48.750;9.314;2023-03-01T13:09:43;11.80;99.30
40676;DHT22;26359;48.750;9.314;2023-03-01T13:15:25;11.90;98.90
40676;DHT22;26359;48.750;9.314;2023-03-01T13:17:55;12.00;99.50
40676;DHT22;26359;48.750;9.314;2023-03-01T13:20:33;12.00;98.50
40676;DHT22;26359;48.750;9.314;2023-03-01T13:25:30;12.10;98.40
40676;DHT22;26359;48.750;9.314;2023-03-01T13:31:03;11.90;98.80
40676;DHT22;26359;48.750;9.314;2023-03-01T13:35:56;12.10;98.10
40676;DHT22;26359;48.750;9.314;2023-03-01T13:41:07;11.80;98.00
40676;DHT22;26359;48.750;9.314;2023-03-01T13:43:36;11.80;98.20
40676;DHT22;26359;48.750;9.314;2023-03-01T13:46:21;11.90;98.50
40676;DHT22;26359;48.750;9.314;2023-03-01T13:48:52;11.90;97.80
40676;DHT22;26359;48.750;9.314;2023-03-01T13:51:25;11.60;98.40
40676;DHT22;26359;48.750;9.314;2023-03-01T13:53:52;11.50;98.20
40676;DHT22;26359;48.750;9.314;2023-03-01T13:56:36;11.60;98.00
40676;DHT22;26359;48.750;9.314;2023-03-01T13:59:20;11.80;98.80
40676;DHT22;26359;48.750;9.314;2023-03-01T14:01:55;11.90;98.30
40676;DHT22;26359;48.750;9.314;2023-03-01T14:04:30;12.10;98.50
40676;DHT22;26359;48.750;9.314;2023-03-01T14:07:23;12.30;98.10
40676;DHT22;26359;48.750;9.314;2023-03-01T14:09:58;12.30;97.70
40676;DHT22;26359;48.750;9.314;2023-03-01T14:15:33;12.00;97.40
40676;DHT22;26359;48.750;9.314;2023-03-01T14:18:21;11.80;98.70
40676;DHT22;26359;48.750;9.314;2023-03-01T14:20:48;11.90;98.40
40676;DHT22;26359;48.750;9.314;2023-03-01T14:23:19;11.80;98.40
40676;DHT22;26359;48.750;9.314;2023-03-01T14:25:57;11.70;97.70
40676;DHT22;26359;48.750;9.314;2023-03-01T14:28:28;11.40;98.00
40676;DHT22;26359;48.750;9.314;2023-03-01T14:30:59;11.30;98.30
40676;DHT22;26359;48.750;9.314;2023-03-01T14:33:32;11.20;98.70
40676;DHT22;26359;48.750;9.314;2023-03-01T14:38:30;10.90;99.00
40676;DHT22;26359;48.750;9.314;2023-03-01T14:40:59;10.90;98.90
40676;DHT22;26359;48.750;9.314;2023-03-01T14:43:26;10.90;98.80
40676;DHT22;26359;48.750;9.314;2023-03-01T14:45:53;10.90;98.70
40676;DHT22;26359;48.750;9.314;2023-03-01T14:48:19;10.80;99.60
40676;DHT22;26359;48.750;9.314;2023-03-01T14:50:45;11.00;99.10
40676;DHT22;26359;48.750;9.314;2023-03-01T14:53:17;11.10;99.10
40676;DHT22;26359;48.750;9.314;2023-03-01T14:55:53;11.20;98.90
40676;DHT22;26359;48.750;9.314;2023-03-01T14:58:22;11.20;98.70
40676;DHT22;26359;48.750;9.314;2023-03-01T15:00:57;11.20;99.00
40676;DHT22;26359;48.750;9.314;2023-03-01T15:03:48;11.30;98.70
40676;DHT22;26359;48.750;9.314;2023-03-01T15:06:19;11.30;98.30
40676;DHT22;26359;48.750;9.314;2023-03-01T15:08:51;11.20;98.40
40676;DHT22;26359;48.750;9.314;2023-03-01T15:11:24;11.10;98.60
40676;DHT22;26359;48.750;9.314;2023-03-01T15:13:52;11.00;98.80
40676;DHT22;26359;48.750;9.314;2023-03-01T15:18:55;10.90;98.70
40676;DHT22;26359;48.750;9.314;2023-03-01T15:21:24;10.80;98.90
40676;DHT22;26359;48.750;9.314;2023-03-01T15:23:54;10.70;98.60
40676;DHT22;26359;48.750;9.314;2023-03-01T15:26:30;10.60;98.80
40676;DHT22;26359;48.750;9.314;2023-03-01T15:28:58;10.60;98.90
40676;DHT22;26359;48.750;9.314;2023-03-01T15:31:32;10.50;99.10
40676;DHT22;26359;48.750;9.314;2023-03-01T15:34:24;10.50;99.60
40676;DHT22;26359;48.750;9.314;2023-03-01T15:36:51;10.50;99.10
40676;DHT22;26359;48.750;9.314;2023-03-01T15:39:33;10.50;99.10
40676;DHT22;26359;48.750;9.314;2023-03-01T15:42:04;10.30;99.30
40676;DHT22;26359;48.750;9.314;2023-03-01T15:44:33;10.20;99.90
40676;DHT22;26359;48.750;9.314;2023-03-01T15:46:59;10.10;99.30
40676;DHT22;26359;48.750;9.314;2023-03-01T15:49:41;10.00;99.90
40676;DHT22;26359;48.750;9.314;2023-03-01T15:52:22;9.70;99.70
40676;DHT22;26359;48.750;9.314;2023-03-01T15:54:57;9.50;99.90
40676;DHT22;26359;48.750;9.314;2023-03-01T15:57:24;9.40;99.90
40676;DHT22;26359;48.750;9.314;2023-03-01T15:59:50;9.30;99.90
40676;DHT22;26359;48.750;9.314;2023-03-01T16:02:15;9.20;99.90
40676;DHT22;26359;48.750;9.314;2023-03-01T16:04:41;9.10;99.90
40676;DHT22;26359;48.750;9.314;2023-03-01T16:07:08;9.00;99.90
40676;DHT22;26359;48.750;9.314;2023-03-01T16:09:34;8.80;99.90
40676;DHT22;26359;48.750;9.314;2023-03-01T16:12:00;8.60;99.90
40676;DHT22;26359;48.750;9.314;2023-03-01T16:14:27;8.40;99.90
40676;DHT22;26359;48.750;9.314;2023-03-01T16:16:52;8.40;99.90
40676;DHT22;26359;48.750;9.314;2023-03-01T16:19:18;8.20;99.90
40676;DHT22;26359;48.750;9.314;2023-03-01T16:21:44;8.20;99.90
40676;DHT22;26359;48.750;9.314;2023-03-01T16:24:12;8.10;99.90
40676;DHT22;26359;48.750;9.314;2023-03-01T16:26:38;8.00;99.90
40676;DHT22;26359;48.750;9.314;2023-03-01T16:29:04;7.90;99.90
40676;DHT22;26359;48.750;9.314;2023-03-01T16:31:30;7.90;99.90
40676;DHT22;26359;48.750;9.314;2023-03-01T16:33:56;7.80;99.90
40676;DHT22;26359;48.750;9.314;2023-03-01T16:36:24;7.70;99.90
40676;DHT22;26359;48.750;9.314;2023-03-01T16:38:51;7.70;99.90
40676;DHT22;26359;48.750;9.314;2023-03-01T16:41:19;7.70;99.90
40676;DHT22;26359;48.750;9.314;2023-03-01T16:43:45;7.60;99.90
40676;DHT22;26359;48.750;9.314;2023-03-01T16:46:25;7.60;99.90
40676;DHT22;26359;48.750;9.314;2023-03-01T16:48:51;7.50;99.90
40676;DHT22;26359;48.750;9.314;2023-03-01T16:51:18;7.50;99.90
40676;DHT22;26359;48.750;9.314;2023-03-01T16:53:44;7.40;99.90
40676;DHT22;26359;48.750;9.314;2023-03-01T16:56:11;7.40;99.90
40676;DHT22;26359;48.750;9.314;2023-03-01T16:58:38;7.30;99.90
40676;DHT22;26359;48.750;9.314;2023-03-01T17:01:09;7.20;99.90
40676;DHT22;26359;48.750;9.314;2023-03-01T17:03:37;7.20;99.90
40676;DHT22;26359;48.750;9.314;2023-03-01T17:06:04;7.10;99.90
40676;DHT22;26359;48.750;9.314;2023-03-01T17:08:31;7.10;99.90
40676;DHT22;26359;48.750;9.314;2023-03-01T17:11:06;7.00;99.90
40676;DHT22;26359;48.750;9.314;2023-03-01T17:13:31;7.00;99.90
40676;DHT22;26359;48.750;9.314;2023-03-01T17:15:57;7.50;99.90
40676;DHT22;26359;48.750;9.314;2023-03-01T17:18:23;7.30;99.90
40676;DHT22;26359;48.750;9.314;2023-03-01T17:20:49;7.10;99.90
40676;DHT22;26359;48.750;9.314;2023-03-01T17:23:15;7.00;99.90
40676;DHT22;26359;48.750;9.314;2023-03-01T17:25:46;6.90;99.90
40676;DHT22;26359;48.750;9.314;2023-03-01T17:28:14;6.90;99.90
40676;DHT22;26359;48.750;9.314;2023-03-01T17:30:42;6.80;99.90
40676;DHT22;26359;48.750;9.314;2023-03-01T17:33:09;6.70;99.90
40676;DHT22;26359;48.750;9.314;2023-03-01T17:35:35;6.60;99.90
40676;DHT22;26359;48.750;9.314;2023-03-01T17:38:03;6.60;99.90